Time;durP1;ratioP1;P1;durP2;ratioP2;P2;SDS_P1;SDS_P2;PMS_P1;PMS_P2;Temp;Humidity;BMP_temperature;BMP_pressure;BME280_temperature;BME280_humidity;BME280_pressure;Samples;Min_cycle;Max_cycle;Signal;HPM_P1;HPM_P2
2022/12/10 00:01:49;;;;;;;28.87;13.03;;;11.10;95.20;;;;;;6301028;22;20153;-79
2022/12/10 00:04:17;;;;;;;31.07;13.20;;;11.10;95.20;;;;;;6301967;22;20165;-79
2022/12/10 00:06:46;;;;;;;35.70;14.00;;;11.10;95.50;;;;;;6303441;22;20169;-79
2022/12/10 00:09:17;;;;;;;32.20;14.33;;;11.20;95.20;;;;;;6301219;22;20158;-80
2022/12/10 00:11:45;;;;;;;30.87;13.77;;;11.10;95.20;;;;;;6299770;22;20193;-78
2022/12/10 00:14:14;;;;;;;31.90;12.20;;;11.20;95.20;;;;;;6302560;22;20195;-79
2022/12/10 00:16:44;;;;;;;27.47;12.93;;;11.20;95.20;;;;;;6302685;22;20538;-80
2022/12/10 00:19:12;;;;;;;27.37;13.00;;;11.20;95.20;;;;;;6302202;22;20610;-79
2022/12/10 00:21:41;;;;;;;31.93;13.70;;;11.20;95.20;;;;;;6299684;22;20173;-79
2022/12/10 00:24:10;;;;;;;29.57;12.57;;;11.20;95.10;;;;;;6302915;22;20468;-80
2022/12/10 00:26:40;;;;;;;29.93;12.27;;;11.20;95.20;;;;;;6302975;22;20173;-79
2022/12/10 00:29:11;;;;;;;31.53;12.80;;;11.20;95.20;;;;;;6304914;22;20679;-79
2022/12/10 00:31:40;;;;;;;32.80;13.60;;;11.20;95.10;;;;;;6300652;22;20161;-79
2022/12/10 00:34:11;;;;;;;30.27;12.83;;;11.20;95.20;;;;;;6305226;22;20276;-79
2022/12/10 00:36:43;;;;;;;36.07;13.13;;;11.20;95.10;;;;;;6303413;22;20165;-79
2022/12/10 00:39:14;;;;;;;34.30;14.53;;;11.20;95.10;;;;;;6303664;22;20536;-79
2022/12/10 00:41:42;;;;;;;34.70;14.53;;;11.20;95.40;;;;;;6303137;22;20598;-79
2022/12/10 00:44:11;;;;;;;26.93;11.50;;;11.20;95.30;;;;;;6304517;22;20169;-79
2022/12/10 00:46:39;;;;;;;27.50;12.33;;;11.10;95.20;;;;;;6300045;22;20177;-79
2022/12/10 00:49:09;;;;;;;28.80;12.73;;;11.20;95.20;;;;;;6305488;22;20208;-79
2022/12/10 00:51:37;;;;;;;34.77;11.90;;;11.20;95.20;;;;;;6303456;22;20173;-79
2022/12/10 00:54:06;;;;;;;31.07;12.80;;;11.20;95.20;;;;;;6305732;22;21173;-78
2022/12/10 00:56:35;;;;;;;35.07;11.53;;;11.20;95.20;;;;;;6303900;22;20298;-80
2022/12/10 00:59:03;;;;;;;28.77;11.43;;;11.10;95.10;;;;;;6306928;22;20751;-79
2022/12/10 01:01:34;;;;;;;30.67;13.23;;;11.10;95.10;;;;;;6303194;22;20544;-80
2022/12/10 01:04:05;;;;;;;26.35;12.48;;;11.10;95.10;;;;;;6305087;22;20379;-79
2022/12/10 01:06:36;;;;;;;25.93;12.03;;;11.10;95.20;;;;;;6306735;22;20527;-78
2022/12/10 01:09:08;;;;;;;25.63;11.37;;;11.10;95.20;;;;;;6306826;22;20157;-79
2022/12/10 01:11:38;;;;;;;28.33;12.03;;;11.10;95.20;;;;;;6301386;22;20731;-79
2022/12/10 01:14:08;;;;;;;35.20;12.40;;;11.10;95.20;;;;;;6303084;22;20188;-78
2022/12/10 01:16:37;;;;;;;36.93;13.23;;;11.10;95.10;;;;;;6304533;22;20216;-78
2022/12/10 01:19:06;;;;;;;34.33;12.30;;;11.10;95.10;;;;;;6303582;22;20579;-79
2022/12/10 01:21:36;;;;;;;37.73;12.27;;;11.10;95.10;;;;;;6303916;22;20227;-81
2022/12/10 01:24:05;;;;;;;33.23;12.37;;;11.10;95.10;;;;;;6306148;22;20234;-78
2022/12/10 01:26:35;;;;;;;30.30;11.43;;;11.10;95.10;;;;;;6305399;22;20227;-79
2022/12/10 01:29:05;;;;;;;31.38;12.60;;;11.20;95.10;;;;;;6304290;22;20464;-79
2022/12/10 01:31:35;;;;;;;23.93;11.23;;;11.10;95.10;;;;;;6304126;22;20653;-79
2022/12/10 01:34:06;;;;;;;30.00;11.27;;;11.10;95.10;;;;;;6304880;22;20181;-79
2022/12/10 01:36:37;;;;;;;27.90;11.40;;;11.10;95.10;;;;;;6302568;22;20598;-79
2022/12/10 01:39:08;;;;;;;36.50;11.83;;;11.10;95.00;;;;;;6304920;22;20498;-79
2022/12/10 01:41:39;;;;;;;21.70;10.10;;;11.10;95.00;;;;;;6303591;22;20180;-79
2022/12/10 01:44:40;;;;;;;22.97;10.33;;;11.10;95.00;;;;;;6305301;22;20158;-79
2022/12/10 01:47:09;;;;;;;24.40;11.07;;;11.10;95.00;;;;;;6300992;22;20641;-79
2022/12/10 01:49:39;;;;;;;24.50;10.43;;;11.10;95.00;;;;;;6304737;22;20173;-78
2022/12/10 01:52:11;;;;;;;30.47;10.13;;;11.10;95.00;;;;;;6303299;22;20498;-78
2022/12/10 01:54:43;;;;;;;19.37;10.33;;;11.10;94.90;;;;;;6304341;22;20230;-79
2022/12/10 01:57:14;;;;;;;24.77;9.70;;;11.10;94.90;;;;;;6302738;22;20236;-79
2022/12/10 01:59:44;;;;;;;27.20;9.73;;;11.10;94.90;;;;;;6303891;22;20167;-79
2022/12/10 02:02:16;;;;;;;29.37;11.50;;;11.00;94.90;;;;;;6302141;22;20177;-81
2022/12/10 02:04:56;;;;;;;18.73;9.47;;;11.10;95.00;;;;;;6304370;22;20178;-79
2022/12/10 02:07:33;;;;;;;25.23;9.87;;;11.10;95.00;;;;;;6305040;22;20164;-79
2022/12/10 02:10:09;;;;;;;22.27;9.80;;;11.10;95.00;;;;;;6303134;22;20157;-79
2022/12/10 02:12:47;;;;;;;22.53;9.90;;;11.10;94.90;;;;;;6302876;22;20240;-79
2022/12/10 02:15:18;;;;;;;24.20;10.50;;;11.20;94.90;;;;;;6304926;22;20222;-79
2022/12/10 02:17:48;;;;;;;20.40;10.67;;;11.20;94.80;;;;;;6302910;22;20487;-79
2022/12/10 02:20:20;;;;;;;26.83;10.23;;;11.20;94.80;;;;;;6303309;22;20173;-79
2022/12/10 02:22:54;;;;;;;29.90;12.23;;;11.20;94.70;;;;;;6301198;22;20595;-79
2022/12/10 02:25:26;;;;;;;25.37;12.10;;;11.20;94.70;;;;;;6304884;22;20180;-79
2022/12/10 02:28:02;;;;;;;21.13;11.03;;;11.20;94.70;;;;;;6303652;22;20189;-79
2022/12/10 02:30:34;;;;;;;25.30;11.00;;;11.20;94.70;;;;;;6303523;22;20157;-79
2022/12/10 02:33:05;;;;;;;25.63;11.67;;;11.20;94.70;;;;;;6302721;22;20158;-79
2022/12/10 02:35:38;;;;;;;27.43;11.87;;;11.20;94.70;;;;;;6302651;22;20646;-79
2022/12/10 02:38:13;;;;;;;21.60;11.07;;;11.20;94.70;;;;;;6304056;22;20184;-79
2022/12/10 02:40:46;;;;;;;26.67;11.70;;;11.20;94.70;;;;;;6302454;22;20153;-79
2022/12/10 02:43:15;;;;;;;28.23;11.97;;;11.20;94.70;;;;;;6304995;22;20211;-79
2022/12/10 02:45:45;;;;;;;25.23;11.60;;;11.20;94.70;;;;;;6301196;22;20174;-81
2022/12/10 02:48:14;;;;;;;20.70;10.47;;;11.20;94.70;;;;;;6302087;22;20154;-79
2022/12/10 02:50:43;;;;;;;22.20;11.07;;;11.20;94.80;;;;;;6300920;22;20230;-78
2022/12/10 02:53:11;;;;;;;23.23;12.07;;;11.20;94.70;;;;;;6302491;22;20549;-79
2022/12/10 02:55:53;;;;;;;20.50;10.67;;;11.20;94.80;;;;;;6302373;22;20193;-79
2022/12/10 02:58:29;;;;;;;21.33;10.67;;;11.20;94.70;;;;;;6305953;22;20180;-79
2022/12/10 03:01:10;;;;;;;24.25;12.50;;;11.30;94.70;;;;;;6300595;22;20405;-79
2022/12/10 03:03:46;;;;;;;19.87;10.67;;;11.20;94.90;;;;;;6302876;22;20164;-79
2022/12/10 03:06:21;;;;;;;20.60;10.20;;;11.20;94.90;;;;;;6300339;22;20206;-80
2022/12/10 03:08:52;;;;;;;20.63;10.73;;;11.20;94.80;;;;;;6304002;22;20206;-79
2022/12/10 03:11:23;;;;;;;19.53;10.53;;;11.20;94.80;;;;;;6303299;22;20158;-79
2022/12/10 03:13:56;;;;;;;19.90;11.07;;;11.20;94.70;;;;;;6302595;22;20219;-77
2022/12/10 03:16:30;;;;;;;21.60;10.77;;;11.20;94.70;;;;;;6301582;22;20161;-80
2022/12/10 03:19:04;;;;;;;17.67;10.00;;;11.20;94.70;;;;;;6301768;22;20161;-79
2022/12/10 03:21:36;;;;;;;22.90;11.67;;;11.20;94.60;;;;;;6301891;22;20153;-79
2022/12/10 03:24:06;;;;;;;18.07;9.93;;;11.20;94.60;;;;;;6302502;22;20153;-79
2022/12/10 03:26:34;;;;;;;20.10;10.30;;;11.20;94.60;;;;;;6300840;22;20499;-79
2022/12/10 03:29:07;;;;;;;20.23;10.20;;;11.20;94.60;;;;;;6302717;22;20173;-79
2022/12/10 03:31:39;;;;;;;19.03;10.40;;;11.20;94.60;;;;;;6301411;22;20161;-79
2022/12/10 03:34:09;;;;;;;19.30;10.43;;;11.20;94.50;;;;;;6303453;22;20247;-78
2022/12/10 03:36:40;;;;;;;22.17;10.87;;;11.20;94.60;;;;;;6304146;22;20214;-78
2022/12/10 03:39:09;;;;;;;24.13;11.60;;;11.10;94.50;;;;;;6304028;22;20153;-79
2022/12/10 03:41:37;;;;;;;22.00;11.30;;;11.10;94.50;;;;;;6301097;22;20226;-78
2022/12/10 03:44:06;;;;;;;24.83;10.93;;;11.10;94.50;;;;;;6303273;22;20184;-79
2022/12/10 03:46:35;;;;;;;25.43;11.80;;;11.10;94.50;;;;;;6300711;22;20222;-80
2022/12/10 03:49:05;;;;;;;25.88;13.05;;;11.10;94.60;;;;;;6301472;22;20440;-78
2022/12/10 03:51:33;;;;;;;25.00;11.77;;;11.00;94.60;;;;;;6303687;22;20295;-78
2022/12/10 03:54:01;;;;;;;24.47;11.53;;;11.00;94.60;;;;;;6303912;22;20537;-79
2022/12/10 03:56:29;;;;;;;24.93;12.40;;;11.00;94.70;;;;;;6302004;22;20250;-78
2022/12/10 03:58:58;;;;;;;26.70;12.47;;;11.00;94.80;;;;;;6302694;22;20177;-78
2022/12/10 04:01:26;;;;;;;28.73;14.47;;;11.00;94.80;;;;;;6299829;22;20185;-78
2022/12/10 04:03:56;;;;;;;25.63;13.60;;;11.00;94.80;;;;;;6304227;22;20177;-78
2022/12/10 04:06:24;;;;;;;26.80;12.50;;;11.00;94.80;;;;;;6300697;22;20165;-79
2022/12/10 04:08:53;;;;;;;28.33;13.10;;;11.00;94.80;;;;;;6305038;22;20318;-79
2022/12/10 04:11:26;;;;;;;24.30;13.20;;;11.00;94.80;;;;;;6303894;22;20248;-77
2022/12/10 04:16:40;;;;;;;22.77;11.77;;;11.00;94.90;;;;;;6305751;22;20578;-77
2022/12/10 04:19:12;;;;;;;20.97;10.63;;;10.90;94.90;;;;;;6306507;22;20180;-78
2022/12/10 04:27:21;;;;;;;25.27;11.17;;;10.90;95.00;;;;;;6302164;22;20165;-78
2022/12/10 04:29:50;;;;;;;20.87;11.50;;;10.80;95.00;;;;;;6305532;22;20594;-77
2022/12/10 04:32:19;;;;;;;21.33;10.70;;;10.80;95.10;;;;;;6304435;22;20173;-78
2022/12/10 04:34:48;;;;;;;20.50;10.57;;;10.80;95.10;;;;;;6303575;22;20196;-77
2022/12/10 04:37:17;;;;;;;21.57;11.47;;;10.80;95.10;;;;;;6302438;22;20173;-77
2022/12/10 04:39:46;;;;;;;27.50;12.03;;;10.80;95.10;;;;;;6305051;22;20173;-78
2022/12/10 04:42:14;;;;;;;24.93;11.27;;;10.80;95.20;;;;;;6303687;22;20201;-78
2022/12/10 04:44:42;;;;;;;24.27;12.07;;;10.80;95.20;;;;;;6304270;22;20165;-79
2022/12/10 04:47:11;;;;;;;18.33;10.23;;;10.80;95.20;;;;;;6303147;22;20221;-78
2022/12/10 04:49:40;;;;;;;21.93;10.83;;;10.80;95.20;;;;;;6302867;22;20162;-77
2022/12/10 04:52:13;;;;;;;21.07;11.57;;;10.80;95.20;;;;;;6303334;22;20195;-78
2022/12/10 04:54:41;;;;;;;22.30;11.87;;;10.80;95.30;;;;;;6302273;22;20162;-77
2022/12/10 04:57:10;;;;;;;21.83;11.47;;;10.80;95.30;;;;;;6304105;22;20196;-77
2022/12/10 04:59:39;;;;;;;20.47;10.90;;;10.80;95.30;;;;;;6305291;22;20639;-77
2022/12/10 05:02:08;;;;;;;19.87;10.73;;;10.70;95.30;;;;;;6299599;22;20207;-77
2022/12/10 05:04:36;;;;;;;21.73;11.73;;;10.70;95.30;;;;;;6305209;22;20169;-77
2022/12/10 05:07:04;;;;;;;22.50;11.47;;;10.70;95.30;;;;;;6303964;22;20204;-76
2022/12/10 05:09:34;;;;;;;24.95;13.38;;;10.70;95.30;;;;;;6305569;22;20387;-76
2022/12/10 05:12:02;;;;;;;23.23;11.90;;;10.70;95.40;;;;;;6305504;22;20170;-78
2022/12/10 05:14:31;;;;;;;20.37;10.40;;;10.70;95.40;;;;;;6303800;22;20181;-78
2022/12/10 05:16:59;;;;;;;24.13;13.03;;;10.60;95.40;;;;;;6304769;22;20185;-77
2022/12/10 05:19:27;;;;;;;19.07;10.27;;;10.70;95.50;;;;;;6299874;22;20227;-77
2022/12/10 05:24:42;;;;;;;21.63;11.27;;;10.70;95.50;;;;;;6301567;22;20624;-77
2022/12/10 05:27:11;;;;;;;25.00;12.50;;;10.70;95.50;;;;;;6303396;22;20231;-78
2022/12/10 05:29:39;;;;;;;17.77;9.67;;;10.70;95.50;;;;;;6305202;22;20754;-76
2022/12/10 05:32:07;;;;;;;18.73;10.27;;;10.70;95.50;;;;;;6304752;22;20180;-77
2022/12/10 05:34:35;;;;;;;18.53;10.23;;;10.70;95.50;;;;;;6305766;22;20632;-77
2022/12/10 05:37:04;;;;;;;17.73;9.90;;;10.70;95.40;;;;;;6304332;22;20228;-79
2022/12/10 05:39:32;;;;;;;18.97;10.13;;;10.70;95.40;;;;;;6302312;22;20688;-77
2022/12/10 05:42:02;;;;;;;18.30;9.87;;;10.70;95.40;;;;;;6306951;22;20173;-77
2022/12/10 05:44:30;;;;;;;17.77;9.77;;;10.70;95.40;;;;;;6307697;22;20180;-77
2022/12/10 05:46:58;;;;;;;30.00;11.73;;;10.70;95.40;;;;;;6306600;22;20176;-77
2022/12/10 05:49:27;;;;;;;22.03;10.73;;;10.70;95.40;;;;;;6306193;22;20173;-78
2022/12/10 05:51:56;;;;;;;18.13;10.40;;;10.70;95.50;;;;;;6307662;22;20173;-78
2022/12/10 05:54:24;;;;;;;21.27;10.90;;;10.70;95.50;;;;;;6303031;22;20626;-77
2022/12/10 05:56:53;;;;;;;18.20;9.93;;;10.70;95.50;;;;;;6304126;22;20200;-77
2022/12/10 05:59:22;;;;;;;20.00;9.90;;;10.70;95.50;;;;;;6304649;22;20246;-78
2022/12/10 06:01:51;;;;;;;20.00;10.03;;;10.70;95.60;;;;;;6304983;22;20173;-78
2022/12/10 06:04:19;;;;;;;19.73;11.20;;;10.80;95.60;;;;;;6305128;22;20233;-77
2022/12/10 06:06:48;;;;;;;18.13;10.40;;;10.80;95.70;;;;;;6306134;22;20171;-78
2022/12/10 06:09:16;;;;;;;21.23;10.17;;;10.80;95.60;;;;;;6307043;22;20177;-79
2022/12/10 06:11:44;;;;;;;20.37;10.50;;;10.80;95.70;;;;;;6306319;22;20173;-79
2022/12/10 06:14:13;;;;;;;20.27;10.33;;;10.80;95.70;;;;;;6304917;22;20223;-79
2022/12/10 06:16:42;;;;;;;20.33;10.10;;;10.80;95.70;;;;;;6306175;22;20193;-80
2022/12/10 06:19:10;;;;;;;18.33;10.57;;;10.90;95.70;;;;;;6306908;22;20394;-80
2022/12/10 06:21:39;;;;;;;18.90;10.27;;;10.90;95.80;;;;;;6305798;22;20622;-79
2022/12/10 06:24:08;;;;;;;19.30;10.40;;;10.90;95.80;;;;;;6306080;22;20173;-80
2022/12/10 06:26:36;;;;;;;20.37;11.07;;;10.90;95.80;;;;;;6305249;22;20634;-78
2022/12/10 06:29:05;;;;;;;21.70;11.10;;;10.90;95.70;;;;;;6306224;22;20180;-78
2022/12/10 06:31:34;;;;;;;19.47;10.07;;;10.90;95.60;;;;;;6306676;22;20235;-78
2022/12/10 06:34:04;;;;;;;17.57;9.97;;;10.90;95.60;;;;;;6307138;22;20692;-77
2022/12/10 06:36:32;;;;;;;20.40;10.10;;;10.90;95.60;;;;;;6306268;22;20185;-81
2022/12/10 06:39:00;;;;;;;16.80;9.87;;;10.90;95.70;;;;;;6305957;22;20180;-79
2022/12/10 06:41:28;;;;;;;20.30;10.47;;;11.00;95.70;;;;;;6307577;22;20169;-80
2022/12/10 06:43:58;;;;;;;20.73;11.17;;;11.00;95.70;;;;;;6307389;22;20481;-80
2022/12/10 06:46:29;;;;;;;22.03;10.73;;;11.00;95.70;;;;;;6306527;22;20523;-80
2022/12/10 06:48:57;;;;;;;19.93;10.33;;;11.00;95.70;;;;;;6306374;22;20666;-79
2022/12/10 06:51:27;;;;;;;20.57;10.80;;;11.00;95.60;;;;;;6305589;22;20223;-78
2022/12/10 06:53:56;;;;;;;18.67;9.30;;;11.10;95.70;;;;;;6303040;22;20660;-79
2022/12/10 06:56:25;;;;;;;18.53;9.83;;;11.10;95.70;;;;;;6299435;22;20246;-78
2022/12/10 06:58:54;;;;;;;20.97;10.87;;;11.20;95.70;;;;;;6302300;22;20609;-78
2022/12/10 07:13:00;;;;;;;19.80;9.73;;;11.20;95.40;;;;;;6214855;22;1418585;-79
2022/12/10 07:15:29;;;;;;;20.90;9.63;;;11.60;96.30;;;;;;6221096;23;20228;-79
2022/12/10 07:17:57;;;;;;;19.10;10.03;;;11.80;96.10;;;;;;6221725;23;20171;-80
2022/12/10 07:20:25;;;;;;;18.27;10.33;;;11.80;95.70;;;;;;6221596;23;20174;-79
2022/12/10 07:22:54;;;;;;;18.40;9.90;;;11.90;95.20;;;;;;6222241;23;20233;-79
2022/12/10 07:25:22;;;;;;;17.00;9.57;;;11.90;95.30;;;;;;6218228;23;20213;-79
2022/12/10 07:27:50;;;;;;;21.83;9.83;;;12.00;95.10;;;;;;6220075;23;20171;-78
2022/12/10 07:30:26;;;;;;;30.63;12.07;;;12.00;95.10;;;;;;6220936;23;20161;-80
2022/12/10 07:32:54;;;;;;;33.03;12.27;;;12.00;95.10;;;;;;6220665;23;20175;-80
2022/12/10 07:35:23;;;;;;;28.20;10.67;;;12.10;95.10;;;;;;6216773;23;20159;-79
2022/12/10 07:38:08;;;;;;;24.43;12.23;;;12.10;95.00;;;;;;6153454;23;20633;-78
2022/12/10 07:40:37;;;;;;;20.13;10.13;;;12.10;95.00;;;;;;6219142;23;20174;-79
2022/12/10 07:43:11;;;;;;;16.83;9.50;;;12.10;94.90;;;;;;6220654;23;20197;-78
2022/12/10 07:45:41;;;;;;;33.20;10.70;;;12.10;94.80;;;;;;6219709;23;20158;-78
2022/12/10 07:48:09;;;;;;;16.73;8.50;;;12.10;94.70;;;;;;6221776;23;20171;-78
2022/12/10 07:50:38;;;;;;;20.95;11.60;;;12.10;94.60;;;;;;6217929;23;20750;-77
2022/12/10 07:53:06;;;;;;;18.03;10.40;;;12.10;94.70;;;;;;6221461;23;20179;-75
2022/12/10 07:55:34;;;;;;;24.00;12.27;;;12.00;94.70;;;;;;6220856;23;20174;-77
2022/12/10 07:58:03;;;;;;;20.53;10.90;;;12.10;94.70;;;;;;6219821;23;20536;-76
2022/12/10 08:00:32;;;;;;;21.80;10.40;;;12.10;94.70;;;;;;6220470;23;20553;-77
2022/12/10 08:03:01;;;;;;;17.77;10.10;;;12.10;94.70;;;;;;6217328;23;20221;-76
2022/12/10 08:05:30;;;;;;;17.17;9.70;;;12.10;94.70;;;;;;6217057;23;20619;-76
2022/12/10 08:08:01;;;;;;;20.13;10.83;;;12.10;94.70;;;;;;6217540;23;20155;-76
2022/12/10 08:10:35;;;;;;;19.60;10.53;;;12.20;94.70;;;;;;6218606;23;20181;-74
2022/12/10 08:13:04;;;;;;;20.77;10.63;;;12.20;94.60;;;;;;6210728;23;20199;-75
2022/12/10 08:15:33;;;;;;;24.10;10.97;;;12.10;94.60;;;;;;6206432;23;20632;-77
2022/12/10 08:18:02;;;;;;;18.97;11.17;;;12.20;94.60;;;;;;6214693;23;20171;-76
2022/12/10 08:20:33;;;;;;;17.83;9.97;;;12.20;94.60;;;;;;6210736;23;20526;-77
2022/12/10 08:23:02;;;;;;;18.63;10.60;;;12.30;94.60;;;;;;6212355;23;20163;-76
2022/12/10 08:25:30;;;;;;;25.00;12.67;;;12.30;94.60;;;;;;6211166;23;20171;-77
2022/12/10 08:28:05;;;;;;;26.58;11.93;;;12.30;94.50;;;;;;6214902;23;20458;-78
2022/12/10 08:30:34;;;;;;;22.70;11.23;;;12.30;94.50;;;;;;6210823;23;20171;-78
2022/12/10 08:33:03;;;;;;;20.93;12.07;;;12.30;94.50;;;;;;6211514;23;20701;-78
2022/12/10 08:35:32;;;;;;;19.60;10.63;;;12.30;94.40;;;;;;6210827;23;20573;-76
2022/12/10 08:38:01;;;;;;;17.50;10.43;;;12.30;94.30;;;;;;6212190;23;20620;-79
2022/12/10 08:40:29;;;;;;;20.13;10.23;;;12.30;94.30;;;;;;6211708;23;20198;-77
2022/12/10 08:42:57;;;;;;;20.13;11.00;;;12.30;94.30;;;;;;6209922;23;20171;-76
2022/12/10 08:45:25;;;;;;;19.63;10.60;;;12.30;94.30;;;;;;6210146;23;20990;-79
2022/12/10 08:47:54;;;;;;;18.67;10.53;;;12.30;94.30;;;;;;6211669;23;20182;-78
2022/12/10 08:50:23;;;;;;;17.77;10.70;;;12.30;94.30;;;;;;6212046;23;20234;-78
2022/12/10 08:52:52;;;;;;;26.00;11.33;;;12.40;94.30;;;;;;6211887;23;20257;-78
2022/12/10 08:55:20;;;;;;;25.23;11.97;;;12.40;94.40;;;;;;6211684;23;20244;-78
2022/12/10 08:57:49;;;;;;;46.13;13.27;;;12.40;94.40;;;;;;6212686;23;20221;-77
2022/12/10 09:00:18;;;;;;;19.67;11.17;;;12.40;94.50;;;;;;6210399;23;20222;-78
2022/12/10 09:02:47;;;;;;;18.23;10.37;;;12.50;94.50;;;;;;6213018;23;20174;-75
2022/12/10 09:05:15;;;;;;;24.23;13.32;;;12.50;94.60;;;;;;6210793;23;20876;-80
2022/12/10 09:07:45;;;;;;;19.43;11.53;;;12.60;94.70;;;;;;6209736;23;20176;-79
2022/12/10 09:10:13;;;;;;;19.53;10.60;;;12.60;94.60;;;;;;6214640;23;20163;-80
2022/12/10 09:12:42;;;;;;;16.63;9.80;;;12.70;94.60;;;;;;6213090;23;20261;-81
2022/12/10 09:15:12;;;;;;;22.40;10.80;;;12.70;94.60;;;;;;6212031;23;20197;-79
2022/12/10 09:17:40;;;;;;;20.20;10.37;;;12.70;94.50;;;;;;6213632;23;20171;-79
2022/12/10 09:20:09;;;;;;;24.03;11.67;;;12.80;94.50;;;;;;6213790;23;20194;-79
2022/12/10 09:22:37;;;;;;;23.07;11.47;;;12.80;94.60;;;;;;6214444;23;20170;-80
2022/12/10 09:25:10;;;;;;;19.73;11.40;;;12.80;94.40;;;;;;6210583;23;20172;-80
2022/12/10 09:27:38;;;;;;;21.80;11.30;;;12.90;94.50;;;;;;6181943;23;20174;-79
2022/12/10 09:30:08;;;;;;;19.07;11.17;;;13.00;94.40;;;;;;6212635;23;20181;-80
2022/12/10 09:32:37;;;;;;;21.67;12.13;;;13.00;94.30;;;;;;6210350;23;20596;-82
2022/12/10 09:35:07;;;;;;;22.53;11.43;;;13.00;94.20;;;;;;6208672;23;20171;-81
2022/12/10 09:37:35;;;;;;;33.17;12.40;;;13.00;94.30;;;;;;6214451;23;20175;-79
2022/12/10 09:40:04;;;;;;;21.33;11.47;;;13.10;94.40;;;;;;6209702;23;20705;-81
2022/12/10 09:42:45;;;;;;;21.10;11.20;;;13.10;94.50;;;;;;6209088;23;20175;-81
2022/12/10 09:45:20;;;;;;;22.00;11.63;;;13.20;94.40;;;;;;6211852;23;20166;-82
2022/12/10 09:47:59;;;;;;;26.50;12.67;;;13.20;94.30;;;;;;6206986;23;20159;-80
2022/12/10 09:50:31;;;;;;;21.07;11.73;;;13.30;94.30;;;;;;6211541;23;20159;-81
2022/12/10 09:53:02;;;;;;;23.53;12.07;;;13.40;94.40;;;;;;6212938;23;20240;-81
2022/12/10 09:55:35;;;;;;;24.43;13.00;;;13.40;94.40;;;;;;6211145;23;20191;-81
2022/12/10 09:58:09;;;;;;;28.40;13.37;;;13.50;94.40;;;;;;6210907;23;20171;-81
2022/12/10 10:00:41;;;;;;;22.67;12.40;;;13.60;94.30;;;;;;6211353;23;20486;-82
2022/12/10 10:03:13;;;;;;;23.23;11.90;;;13.60;94.40;;;;;;6209928;23;20163;-80
2022/12/10 10:05:44;;;;;;;22.97;11.80;;;13.70;94.20;;;;;;6211118;23;20170;-80
2022/12/10 10:08:18;;;;;;;22.20;11.63;;;13.80;94.00;;;;;;6213683;23;20159;-80
2022/12/10 10:10:47;;;;;;;24.67;12.37;;;13.80;94.00;;;;;;6212779;23;20164;-80
2022/12/10 10:13:27;;;;;;;24.57;12.60;;;13.90;94.10;;;;;;6211510;23;20203;-80
2022/12/10 10:15:56;;;;;;;28.07;13.37;;;14.00;94.10;;;;;;6212975;23;20221;-80
2022/12/10 10:18:37;;;;;;;21.97;12.50;;;14.00;93.90;;;;;;6211947;23;20167;-80
2022/12/10 10:21:13;;;;;;;24.57;12.03;;;14.10;94.00;;;;;;6212135;23;20159;-80
2022/12/10 10:23:46;;;;;;;23.13;11.97;;;14.10;93.80;;;;;;6211077;23;20237;-81
2022/12/10 10:26:15;;;;;;;20.43;11.77;;;14.20;93.90;;;;;;6211069;23;20159;-82
2022/12/10 10:28:46;;;;;;;26.67;12.90;;;14.20;93.80;;;;;;6210613;23;20178;-80
2022/12/10 10:31:21;;;;;;;29.60;14.17;;;14.30;93.90;;;;;;6210334;23;20185;-80
2022/12/10 10:33:56;;;;;;;24.67;13.33;;;14.30;93.80;;;;;;6210131;23;20186;-80
2022/12/10 10:36:26;;;;;;;28.73;13.20;;;14.40;93.90;;;;;;6210482;23;20166;-81
2022/12/10 10:38:55;;;;;;;26.17;13.07;;;14.40;93.90;;;;;;6207201;23;20222;-80
2022/12/10 10:41:25;;;;;;;26.63;13.43;;;14.40;93.80;;;;;;6209632;23;20324;-81
2022/12/10 10:44:03;;;;;;;28.50;14.20;;;14.50;93.70;;;;;;6210914;23;20391;-80
2022/12/10 10:46:39;;;;;;;28.23;12.77;;;14.50;93.50;;;;;;6210923;23;20377;-80
2022/12/10 10:49:22;;;;;;;28.47;13.70;;;14.50;93.40;;;;;;6207826;23;20163;-79
2022/12/10 10:51:51;;;;;;;25.13;13.17;;;14.60;93.50;;;;;;6211290;23;20626;-79
2022/12/10 10:54:39;;;;;;;28.20;14.13;;;14.60;93.50;;;;;;6211311;23;20178;-80
2022/12/10 10:57:14;;;;;;;23.53;13.00;;;14.60;93.30;;;;;;6211658;23;20266;-79
2022/12/10 10:59:44;;;;;;;26.67;13.03;;;14.60;93.30;;;;;;6208947;23;20238;-79
2022/12/10 11:02:22;;;;;;;27.30;15.50;;;14.60;93.10;;;;;;6207218;23;20175;-79
2022/12/10 11:04:58;;;;;;;24.43;13.20;;;14.70;93.10;;;;;;6185831;23;20221;-80
2022/12/10 11:07:34;;;;;;;30.23;14.37;;;14.70;93.00;;;;;;6210379;23;20174;-78
2022/12/10 11:10:04;;;;;;;30.27;14.87;;;14.70;93.00;;;;;;6212132;23;20159;-79
2022/12/10 11:12:38;;;;;;;28.13;14.63;;;14.70;92.90;;;;;;6213362;23;20237;-80
2022/12/10 11:15:36;;;;;;;33.07;16.03;;;14.70;93.00;;;;;;6211556;23;20237;-79
2022/12/10 11:18:25;;;;;;;28.20;15.23;;;14.80;93.20;;;;;;6207700;23;20229;-78
2022/12/10 11:21:03;;;;;;;33.28;16.48;;;14.80;93.00;;;;;;6212303;23;20379;-79
2022/12/10 11:23:38;;;;;;;26.50;15.00;;;14.90;93.10;;;;;;6210543;23;20209;-79
2022/12/10 11:26:39;;;;;;;31.00;14.40;;;15.00;93.10;;;;;;6213460;23;20158;-79
2022/12/10 11:29:29;;;;;;;35.37;16.47;;;15.00;93.20;;;;;;6209678;23;20167;-78
2022/12/10 11:32:12;;;;;;;28.00;14.40;;;15.10;93.10;;;;;;6211315;23;20185;-78
2022/12/10 11:34:55;;;;;;;28.07;14.27;;;15.20;93.20;;;;;;6210645;23;20190;-80
2022/12/10 11:37:31;;;;;;;29.30;13.43;;;15.30;93.10;;;;;;6213184;23;20160;-79
2022/12/10 11:40:21;;;;;;;28.50;12.97;;;15.40;93.10;;;;;;6211237;23;20236;-78
2022/12/10 11:42:59;;;;;;;22.80;13.00;;;15.40;93.00;;;;;;6209491;23;20163;-78
2022/12/10 11:45:39;;;;;;;23.60;12.00;;;15.50;93.10;;;;;;6213263;23;20166;-78
2022/12/10 11:48:22;;;;;;;24.60;11.80;;;15.60;92.80;;;;;;6212201;23;20209;-77
2022/12/10 11:50:54;;;;;;;25.43;11.97;;;15.70;92.40;;;;;;6211601;23;20607;-78
2022/12/10 11:53:42;;;;;;;24.30;12.13;;;15.80;92.20;;;;;;6214950;23;20187;-78
2022/12/10 11:56:20;;;;;;;26.43;13.27;;;15.90;91.90;;;;;;6213478;23;20164;-79
2022/12/10 11:59:00;;;;;;;21.97;12.30;;;16.00;92.00;;;;;;6214386;23;20213;-78
2022/12/10 12:01:42;;;;;;;24.60;12.77;;;16.10;92.00;;;;;;6208268;23;20163;-79
2022/12/10 12:04:28;;;;;;;27.67;12.83;;;16.10;91.70;;;;;;6209594;23;20186;-78
2022/12/10 12:07:11;;;;;;;24.40;13.03;;;16.10;91.30;;;;;;6214400;23;20182;-77
2022/12/10 12:09:49;;;;;;;27.40;12.17;;;16.20;91.30;;;;;;6214057;23;20163;-76
2022/12/10 12:12:31;;;;;;;27.30;12.37;;;16.20;91.50;;;;;;6213317;23;20159;-77
2022/12/10 12:15:14;;;;;;;22.57;11.60;;;16.20;91.40;;;;;;6185810;23;20203;-77
2022/12/10 12:17:45;;;;;;;20.53;10.90;;;16.30;91.60;;;;;;6214397;23;20206;-77
2022/12/10 12:20:20;;;;;;;29.23;10.43;;;16.20;91.20;;;;;;6213884;23;20530;-79
2022/12/10 12:22:53;;;;;;;26.43;11.63;;;16.20;91.20;;;;;;6210936;23;20189;-79
2022/12/10 12:25:27;;;;;;;22.03;11.70;;;16.20;91.30;;;;;;6211947;23;20172;-77
2022/12/10 12:28:02;;;;;;;24.10;11.67;;;16.20;91.30;;;;;;6215025;23;20155;-75
2022/12/10 12:30:33;;;;;;;26.07;12.60;;;16.20;91.20;;;;;;6213437;23;20155;-79
2022/12/10 12:33:08;;;;;;;26.57;10.63;;;16.20;91.00;;;;;;6213095;23;20163;-77
2022/12/10 12:35:43;;;;;;;22.90;11.17;;;16.20;91.20;;;;;;6214420;23;20166;-79
2022/12/10 12:38:24;;;;;;;22.13;10.97;;;16.20;91.10;;;;;;6211600;23;20163;-77
2022/12/10 12:40:57;;;;;;;21.50;9.90;;;16.20;91.20;;;;;;6212046;23;20195;-78
2022/12/10 12:43:35;;;;;;;17.13;9.80;;;16.20;91.20;;;;;;6211211;23;20467;-77
2022/12/10 12:46:10;;;;;;;25.53;10.20;;;16.20;91.00;;;;;;6210716;23;20538;-77
2022/12/10 12:48:48;;;;;;;21.63;10.07;;;16.30;91.10;;;;;;6213831;23;20616;-76
2022/12/10 12:51:24;;;;;;;22.70;11.97;;;16.30;91.00;;;;;;6207765;23;20194;-76
2022/12/10 12:53:52;;;;;;;24.10;12.13;;;16.30;91.00;;;;;;6212687;23;20561;-77
2022/12/10 12:56:31;;;;;;;24.37;12.10;;;16.30;91.00;;;;;;6211266;23;20171;-76
2022/12/10 12:59:08;;;;;;;21.30;11.50;;;16.30;91.10;;;;;;6212457;23;20155;-76
2022/12/10 13:01:41;;;;;;;19.63;10.93;;;16.30;91.10;;;;;;6212698;23;20159;-77
2022/12/10 13:04:10;;;;;;;22.43;10.93;;;16.20;91.20;;;;;;6213535;23;20187;-76
2022/12/10 13:06:44;;;;;;;26.93;11.63;;;16.30;91.60;;;;;;6209577;23;20179;-77
2022/12/10 13:09:27;;;;;;;19.53;10.43;;;16.30;91.30;;;;;;6212418;23;20189;-77
2022/12/10 13:12:18;;;;;;;19.33;9.27;;;16.30;91.40;;;;;;6212064;23;20163;-77
2022/12/10 13:15:03;;;;;;;20.47;7.97;;;16.30;91.40;;;;;;6212002;23;20241;-78